createdAt,value
2022-09-12T00:01:15.496Z,22.00
2022-09-12T00:03:42.687Z,21.90
2022-09-12T00:06:12.847Z,22.00
2022-09-12T00:08:40.031Z,21.90
2022-09-12T00:11:09.060Z,21.90
2022-09-12T00:13:41.484Z,21.90
2022-09-12T00:16:16.194Z,21.90
2022-09-12T00:18:44.261Z,21.90
2022-09-12T00:21:11.121Z,21.90
2022-09-12T00:23:38.026Z,21.90
2022-09-12T00:26:06.776Z,21.90
2022-09-12T00:28:35.522Z,21.90
2022-09-12T00:31:10.013Z,21.80
2022-09-12T00:33:37.357Z,21.80
2022-09-12T00:36:06.926Z,21.80
2022-09-12T00:38:34.012Z,21.80
2022-09-12T00:41:00.957Z,21.80
2022-09-12T00:43:30.922Z,21.80
2022-09-12T00:45:59.071Z,21.80
2022-09-12T00:48:35.378Z,21.80
2022-09-12T00:51:03.052Z,21.70
2022-09-12T00:53:30.311Z,21.70
2022-09-12T00:55:58.680Z,21.70
2022-09-12T00:58:30.385Z,21.70
2022-09-12T01:00:58.911Z,21.70
2022-09-12T01:03:26.739Z,21.60
2022-09-12T01:06:09.402Z,21.60
2022-09-12T01:08:37.536Z,21.60
2022-09-12T01:11:06.153Z,21.60
2022-09-12T01:13:35.697Z,21.50
2022-09-12T01:16:07.437Z,21.50
2022-09-12T01:19:20.256Z,21.50
2022-09-12T01:22:09.049Z,21.50
2022-09-12T01:25:02.278Z,21.40
2022-09-12T01:27:48.815Z,21.30
2022-09-12T01:30:34.463Z,22.30
2022-09-12T01:33:17.397Z,21.30
2022-09-12T01:35:53.334Z,21.20
2022-09-12T01:38:26.405Z,22.00
2022-09-12T01:40:56.372Z,22.10
2022-09-12T01:43:50.307Z,22.50
2022-09-12T01:46:21.371Z,22.10
2022-09-12T01:48:56.450Z,22.80
2022-09-12T01:51:29.857Z,22.60
2022-09-12T01:54:22.882Z,23.10
2022-09-12T01:56:55.318Z,22.40
2022-09-12T01:59:39.519Z,23.30
2022-09-12T02:02:18.920Z,22.90
2022-09-12T02:04:56.658Z,23.30
2022-09-12T02:07:49.631Z,22.80
2022-09-12T02:10:23.974Z,22.70
2022-09-12T02:13:03.145Z,23.00
2022-09-12T02:15:37.870Z,22.80
2022-09-12T02:18:06.728Z,22.80
2022-09-12T02:20:54.875Z,22.80
2022-09-12T02:23:26.486Z,22.60
2022-09-12T02:26:02.339Z,22.80
2022-09-12T02:28:36.134Z,22.80
2022-09-12T02:31:29.010Z,22.70
2022-09-12T02:34:21.804Z,22.70
2022-09-12T02:37:13.190Z,22.50
2022-09-12T02:39:44.491Z,23.20
2022-09-12T02:42:12.480Z,23.90
2022-09-12T02:44:39.605Z,24.10
2022-09-12T02:47:11.569Z,24.50
2022-09-12T02:49:38.575Z,24.80
2022-09-12T02:52:05.630Z,25.30
2022-09-12T02:54:33.049Z,25.70
2022-09-12T02:57:00.083Z,26.10
2022-09-12T02:59:27.412Z,26.20
2022-09-12T03:02:23.720Z,26.80
2022-09-12T03:05:27.155Z,25.80
2022-09-12T03:08:21.018Z,25.80
2022-09-12T03:11:16.413Z,26.00
2022-09-12T03:13:58.478Z,25.90
2022-09-12T03:16:43.724Z,26.00
2022-09-12T03:19:13.288Z,25.80
2022-09-12T03:22:16.209Z,26.60
2022-09-12T03:24:54.609Z,26.20
2022-09-12T03:27:50.270Z,26.60
2022-09-12T03:30:17.251Z,27.00
2022-09-12T03:32:47.012Z,27.30
2022-09-12T03:35:15.260Z,27.90
2022-09-12T03:37:42.344Z,28.00
2022-09-12T03:40:11.696Z,28.90
2022-09-12T03:42:40.149Z,29.10
2022-09-12T03:45:08.910Z,29.10
2022-09-12T03:47:36.399Z,29.40
2022-09-12T03:50:04.672Z,29.80
2022-09-12T03:52:31.620Z,29.90
2022-09-12T03:54:58.458Z,30.20
2022-09-12T03:57:25.373Z,30.30
2022-09-12T03:59:52.133Z,30.40
2022-09-12T04:02:19.097Z,30.60
2022-09-12T04:04:48.882Z,30.60
2022-09-12T04:07:16.737Z,30.70
2022-09-12T04:09:43.601Z,31.40
2022-09-12T04:12:10.539Z,31.50
2022-09-12T04:14:37.621Z,31.40
2022-09-12T04:17:04.563Z,31.40
2022-09-12T04:19:31.352Z,31.50
2022-09-12T04:21:58.474Z,33.30
2022-09-12T04:24:25.641Z,32.00
2022-09-12T04:26:52.607Z,31.20
2022-09-12T04:29:19.561Z,30.80
2022-09-12T04:31:46.615Z,30.80
2022-09-12T04:34:13.568Z,31.00
2022-09-12T04:36:40.437Z,30.80
2022-09-12T04:39:07.809Z,30.40
2022-09-12T04:41:37.219Z,29.70
2022-09-12T04:44:06.816Z,29.60
2022-09-12T04:46:37.590Z,29.70
2022-09-12T04:49:05.591Z,29.70
2022-09-12T04:51:35.942Z,29.40
2022-09-12T04:54:17.859Z,28.80
2022-09-12T04:56:48.793Z,28.50
2022-09-12T04:59:17.148Z,28.40
2022-09-12T05:01:44.076Z,28.20
2022-09-12T05:04:13.047Z,27.70
2022-09-12T05:06:41.458Z,27.70
2022-09-12T05:09:11.603Z,27.90
2022-09-12T05:12:03.107Z,28.00
2022-09-12T05:14:28.613Z,28.10
2022-09-12T05:16:59.844Z,28.20
2022-09-12T05:19:27.577Z,28.60
2022-09-12T05:21:54.611Z,28.00
2022-09-12T05:24:21.450Z,27.70
2022-09-12T05:26:48.440Z,27.70
2022-09-12T05:29:15.405Z,27.70
2022-09-12T05:31:42.383Z,28.00
2022-09-12T05:34:10.133Z,28.20
2022-09-12T05:36:37.458Z,28.20
2022-09-12T05:39:04.663Z,28.40
2022-09-12T05:41:33.970Z,28.10
2022-09-12T05:44:02.749Z,28.30
2022-09-12T05:46:32.187Z,28.60
2022-09-12T05:49:04.674Z,28.70
2022-09-12T05:51:35.256Z,28.80
2022-09-12T05:54:03.454Z,29.10
2022-09-12T05:56:35.085Z,29.40
2022-09-12T05:59:06.465Z,29.70
2022-09-12T06:01:35.153Z,30.20
2022-09-12T06:04:05.277Z,30.90
2022-09-12T06:06:35.695Z,31.40
2022-09-12T06:09:05.324Z,32.00
2022-09-12T06:11:34.287Z,32.90
2022-09-12T06:14:01.473Z,33.30
2022-09-12T06:16:31.253Z,33.10
2022-09-12T06:19:03.807Z,33.90
2022-09-12T06:21:31.406Z,34.90
2022-09-12T06:23:58.944Z,34.90
2022-09-12T06:26:26.701Z,36.20
2022-09-12T06:28:56.073Z,37.50
2022-09-12T06:31:25.763Z,41.00
2022-09-12T06:33:54.672Z,47.40
2022-09-12T06:36:27.511Z,53.10
2022-09-12T06:39:00.991Z,53.80
2022-09-12T06:41:29.794Z,52.70
2022-09-12T06:43:57.190Z,49.10
2022-09-12T06:46:25.371Z,33.90
2022-09-12T06:48:52.447Z,28.10
2022-09-12T06:51:20.288Z,26.60
2022-09-12T06:53:48.245Z,24.60
2022-09-12T06:56:15.126Z,21.40
2022-09-12T06:58:43.538Z,20.40
2022-09-12T07:01:18.170Z,19.50
2022-09-12T07:04:04.801Z,18.80
2022-09-12T07:06:37.820Z,17.70
2022-09-12T07:09:07.052Z,17.40
2022-09-12T07:11:36.685Z,16.10
2022-09-12T07:14:06.106Z,14.90
2022-09-12T07:16:36.718Z,15.60
2022-09-12T07:19:05.782Z,13.10
2022-09-12T07:21:33.103Z,11.40
2022-09-12T07:24:00.146Z,10.10
2022-09-12T07:26:29.205Z,9.30
2022-09-12T07:29:18.725Z,7.70
2022-09-12T07:31:46.429Z,6.50
2022-09-12T07:34:13.925Z,5.40
2022-09-12T07:36:40.934Z,4.20
2022-09-12T07:39:07.813Z,4.20
2022-09-12T07:41:34.939Z,3.40
2022-09-12T07:44:03.277Z,1.40
2022-09-12T07:46:31.296Z,1.00
2022-09-12T07:48:59.983Z,1.00
2022-09-12T07:51:28.758Z,1.00
2022-09-12T07:53:56.655Z,1.00
2022-09-12T07:56:29.344Z,1.00
2022-09-12T07:58:57.235Z,1.00
2022-09-12T08:01:24.384Z,1.00
2022-09-12T08:03:55.762Z,1.00
2022-09-12T08:06:26.378Z,1.00
2022-09-12T08:08:55.781Z,1.00
2022-09-12T08:11:25.030Z,1.00
2022-09-12T08:13:55.692Z,1.00
2022-09-12T08:16:25.068Z,1.00
2022-09-12T08:18:52.201Z,1.00
2022-09-12T08:21:21.200Z,1.00
2022-09-12T08:23:54.066Z,1.00
2022-09-12T08:26:21.216Z,1.00
2022-09-12T08:28:48.984Z,1.00
2022-09-12T08:31:18.017Z,1.00
2022-09-12T08:33:45.532Z,1.00
2022-09-12T08:36:15.182Z,1.00
2022-09-12T08:38:46.978Z,1.00
2022-09-12T08:41:43.259Z,1.00
2022-09-12T08:44:31.607Z,1.00
2022-09-12T08:47:35.508Z,1.00
2022-09-12T08:50:08.836Z,1.00
2022-09-12T08:52:51.932Z,1.00
2022-09-12T08:55:41.345Z,1.00
2022-09-12T08:58:15.068Z,1.00
2022-09-12T09:00:55.997Z,1.00
2022-09-12T09:03:53.321Z,1.00
2022-09-12T09:06:32.258Z,1.00
2022-09-12T09:09:26.779Z,1.00
2022-09-12T09:11:59.881Z,1.00
2022-09-12T09:14:52.684Z,1.00
2022-09-12T09:17:22.149Z,1.00
2022-09-12T09:20:24.184Z,1.00
2022-09-12T09:22:57.291Z,1.00
2022-09-12T09:25:30.611Z,1.00
2022-09-12T09:28:04.283Z,1.00
2022-09-12T09:30:31.766Z,1.00
2022-09-12T09:33:02.025Z,1.00
2022-09-12T09:35:43.568Z,1.00
2022-09-12T09:38:25.637Z,1.00
2022-09-12T09:40:55.326Z,1.00
2022-09-12T09:43:25.512Z,1.00
2022-09-12T09:45:53.361Z,1.00
2022-09-12T09:48:28.843Z,1.00
2022-09-12T09:51:02.259Z,1.00
2022-09-12T09:53:46.836Z,1.00
2022-09-12T09:56:35.369Z,1.00
2022-09-12T09:59:33.657Z,1.00
2022-09-12T10:02:12.121Z,1.00
2022-09-12T10:04:55.214Z,1.00
2022-09-12T10:07:23.618Z,1.00
2022-09-12T10:10:16.584Z,1.00
2022-09-12T10:12:43.754Z,1.00
2022-09-12T10:15:26.172Z,1.00
2022-09-12T10:17:55.820Z,1.00
2022-09-12T10:20:44.248Z,1.00
2022-09-12T10:23:35.314Z,1.00
2022-09-12T10:26:05.226Z,1.00
2022-09-12T10:28:43.381Z,1.00
2022-09-12T10:31:15.631Z,1.00
2022-09-12T10:33:47.418Z,1.00
2022-09-12T10:36:15.645Z,1.00
2022-09-12T10:38:51.046Z,1.00
2022-09-12T10:41:18.694Z,1.00
2022-09-12T10:43:45.884Z,1.00
2022-09-12T10:46:19.512Z,1.00
2022-09-12T10:48:52.282Z,1.00
2022-09-12T10:51:25.309Z,1.00
2022-09-12T10:53:56.502Z,1.00
2022-09-12T10:56:31.408Z,1.00
2022-09-12T10:59:25.472Z,1.00
2022-09-12T11:01:59.217Z,1.00
2022-09-12T11:04:35.454Z,1.00
2022-09-12T11:07:10.801Z,1.00
2022-09-12T11:09:55.939Z,1.00
2022-09-12T11:12:28.237Z,1.00
2022-09-12T11:15:43.800Z,1.00
2022-09-12T11:18:38.573Z,1.00
2022-09-12T11:21:07.434Z,1.00
2022-09-12T11:23:52.467Z,1.00
2022-09-12T11:26:47.035Z,1.00
2022-09-12T11:29:19.829Z,1.00
2022-09-12T11:31:58.923Z,1.00
2022-09-12T11:34:49.571Z,1.00
2022-09-12T11:37:39.779Z,1.00
2022-09-12T11:40:28.548Z,1.00
2022-09-12T11:43:03.391Z,1.00
2022-09-12T11:45:36.289Z,1.00
2022-09-12T11:48:08.573Z,1.00
2022-09-12T11:50:35.738Z,1.00
2022-09-12T11:53:20.353Z,1.00
2022-09-12T11:56:13.769Z,1.00
2022-09-12T11:58:43.138Z,1.00
2022-09-12T12:01:20.996Z,1.00
2022-09-12T12:03:49.321Z,1.00
2022-09-12T12:06:21.699Z,1.00
2022-09-12T12:08:50.491Z,1.00
2022-09-12T12:11:36.993Z,1.00
2022-09-12T12:14:13.158Z,1.00
2022-09-12T12:16:41.639Z,1.00
2022-09-12T12:19:35.728Z,1.00
2022-09-12T12:22:17.064Z,1.00
2022-09-12T12:24:56.235Z,1.00
2022-09-12T12:27:45.181Z,1.00
2022-09-12T12:30:33.484Z,1.00
2022-09-12T12:33:10.409Z,1.00
2022-09-12T12:35:41.254Z,1.00
2022-09-12T12:38:30.049Z,1.00
2022-09-12T12:41:23.637Z,1.00
2022-09-12T12:43:52.434Z,1.00
2022-09-12T12:46:22.631Z,1.00
2022-09-12T12:48:55.563Z,1.00
2022-09-12T12:51:41.378Z,1.00
2022-09-12T12:54:30.274Z,1.00
2022-09-12T12:57:33.096Z,1.00
2022-09-12T13:00:26.021Z,1.00
2022-09-12T13:03:01.208Z,1.00
2022-09-12T13:05:30.677Z,1.00
2022-09-12T13:08:03.601Z,1.00
2022-09-12T13:10:31.294Z,1.00
2022-09-12T13:13:03.471Z,1.00
2022-09-12T13:15:36.497Z,1.00
2022-09-12T13:18:06.485Z,1.00
2022-09-12T13:20:44.565Z,1.00
2022-09-12T13:23:29.266Z,1.00
2022-09-12T13:25:58.429Z,1.00
2022-09-12T13:28:26.711Z,1.00
2022-09-12T13:30:59.600Z,1.00
2022-09-12T13:33:26.998Z,1.00
2022-09-12T13:36:05.782Z,1.00
2022-09-12T13:38:41.928Z,1.00
2022-09-12T13:41:08.821Z,1.00
2022-09-12T13:43:46.717Z,1.00
2022-09-12T13:46:19.686Z,1.00
2022-09-12T13:48:47.127Z,1.00
2022-09-12T13:51:25.157Z,1.00
2022-09-12T13:53:56.166Z,1.00
2022-09-12T13:56:23.287Z,1.00
2022-09-12T13:58:57.389Z,1.00
2022-09-12T14:01:37.205Z,1.00
2022-09-12T14:04:34.519Z,1.00
2022-09-12T14:07:19.710Z,1.00
2022-09-12T14:09:54.726Z,1.00
2022-09-12T14:12:32.413Z,1.00
2022-09-12T14:14:59.457Z,1.00
2022-09-12T14:17:31.524Z,1.00
2022-09-12T14:20:07.035Z,1.00
2022-09-12T14:22:35.991Z,1.00
2022-09-12T14:25:03.810Z,1.00
2022-09-12T14:27:45.825Z,1.00
2022-09-12T14:30:33.093Z,1.00
2022-09-12T14:33:10.064Z,1.00
2022-09-12T14:35:43.758Z,1.00
2022-09-12T14:38:16.874Z,1.00
2022-09-12T14:40:48.731Z,1.00
2022-09-12T14:43:25.862Z,1.00
2022-09-12T14:45:59.777Z,1.00
2022-09-12T14:48:31.949Z,1.00
2022-09-12T14:50:59.173Z,1.00
2022-09-12T14:53:36.006Z,1.00
2022-09-12T14:56:12.453Z,1.00
2022-09-12T14:58:41.069Z,1.00
2022-09-12T15:01:08.331Z,1.00
2022-09-12T15:03:36.782Z,1.00
2022-09-12T15:06:07.967Z,1.00
2022-09-12T15:08:35.034Z,1.00
2022-09-12T15:11:02.218Z,1.00
2022-09-12T15:13:30.819Z,1.00
2022-09-12T15:15:59.527Z,1.00
2022-09-12T15:18:29.564Z,1.00
2022-09-12T15:21:03.294Z,1.00
2022-09-12T15:23:35.342Z,1.00
2022-09-12T15:26:02.853Z,1.00
2022-09-12T15:28:31.258Z,1.00
2022-09-12T15:31:12.430Z,1.00
2022-09-12T15:33:39.568Z,1.00
2022-09-12T15:36:13.609Z,1.00
2022-09-12T15:38:40.559Z,1.00
2022-09-12T15:41:13.583Z,1.00
2022-09-12T15:43:40.548Z,1.00
2022-09-12T15:46:11.719Z,1.00
2022-09-12T15:48:39.011Z,1.00
2022-09-12T15:51:15.070Z,1.00
2022-09-12T15:53:42.628Z,1.00
2022-09-12T15:56:09.661Z,1.00
2022-09-12T15:58:36.811Z,1.00
2022-09-12T16:01:05.190Z,1.00
2022-09-12T16:03:32.406Z,1.00
2022-09-12T16:06:01.610Z,1.00
2022-09-12T16:08:31.427Z,1.00
2022-09-12T16:11:16.895Z,1.00
2022-09-12T16:13:43.793Z,1.00
2022-09-12T16:16:11.146Z,1.00
2022-09-12T16:18:40.622Z,1.00
2022-09-12T16:21:11.422Z,1.00
2022-09-12T16:23:45.970Z,1.00
2022-09-12T16:26:13.116Z,1.00
2022-09-12T16:28:40.941Z,1.00
2022-09-12T16:31:10.837Z,1.00
2022-09-12T16:33:38.804Z,1.00
2022-09-12T16:36:11.735Z,1.00
2022-09-12T16:38:50.147Z,1.00
2022-09-12T16:41:19.236Z,1.00
2022-09-12T16:43:46.387Z,1.00
2022-09-12T16:46:16.686Z,1.00
2022-09-12T16:48:51.561Z,1.00
2022-09-12T16:51:22.555Z,1.00
2022-09-12T16:53:49.835Z,1.00
2022-09-12T16:56:17.093Z,1.00
2022-09-12T16:58:44.184Z,1.00
2022-09-12T17:01:17.142Z,1.00
2022-09-12T17:03:44.218Z,1.00
2022-09-12T17:06:14.051Z,1.00
2022-09-12T17:08:43.660Z,1.00
2022-09-12T17:11:12.921Z,1.00
2022-09-12T17:14:03.346Z,1.00
2022-09-12T17:16:28.435Z,1.00
2022-09-12T17:18:56.025Z,1.00
2022-09-12T17:21:23.491Z,1.00
2022-09-12T17:23:50.726Z,1.00
2022-09-12T17:26:17.850Z,1.00
2022-09-12T17:28:44.986Z,1.00
2022-09-12T17:31:14.518Z,1.00
2022-09-12T17:33:42.005Z,1.00
2022-09-12T17:36:15.094Z,1.00
2022-09-12T17:38:43.470Z,1.00
2022-09-12T17:41:17.707Z,1.00
2022-09-12T17:43:56.585Z,1.00
2022-09-12T17:46:31.783Z,1.00
2022-09-12T17:49:18.738Z,1.00
2022-09-12T17:51:52.172Z,1.00
2022-09-12T17:54:20.855Z,1.00
2022-09-12T17:56:49.739Z,1.00
2022-09-12T17:59:20.171Z,1.00
2022-09-12T18:02:06.498Z,1.00
2022-09-12T18:04:33.615Z,1.00
2022-09-12T18:07:00.827Z,1.00
2022-09-12T18:09:28.419Z,1.00
2022-09-12T18:11:56.038Z,1.00
2022-09-12T18:14:23.765Z,1.00
2022-09-12T18:16:50.826Z,1.00
2022-09-12T18:19:18.360Z,1.00
2022-09-12T18:21:45.489Z,1.00
2022-09-12T18:24:12.467Z,1.00
2022-09-12T18:26:39.453Z,1.00
2022-09-12T18:29:07.402Z,1.00
2022-09-12T18:31:34.571Z,1.00
2022-09-12T18:34:05.896Z,1.00
2022-09-12T18:36:32.959Z,1.00
2022-09-12T18:38:59.998Z,1.00
2022-09-12T18:41:29.041Z,1.00
2022-09-12T18:43:57.712Z,1.00
2022-09-12T18:46:25.747Z,1.00
2022-09-12T18:48:55.397Z,1.00
2022-09-12T18:51:25.821Z,1.00
2022-09-12T18:54:00.679Z,1.00
2022-09-12T18:56:34.618Z,1.00
2022-09-12T18:59:06.766Z,1.00
2022-09-12T19:01:36.631Z,1.00
2022-09-12T19:04:05.026Z,1.00
2022-09-12T19:06:35.312Z,1.00
2022-09-12T19:09:07.335Z,1.00
2022-09-12T19:11:39.998Z,1.00
2022-09-12T19:14:07.665Z,1.00
2022-09-12T19:16:35.253Z,1.00
2022-09-12T19:19:02.993Z,1.00
2022-09-12T19:21:31.511Z,1.00
2022-09-12T19:24:01.835Z,1.00
2022-09-12T19:26:29.529Z,1.00
2022-09-12T19:28:56.922Z,1.00
2022-09-12T19:31:24.594Z,1.00
2022-09-12T19:33:54.771Z,1.00
2022-09-12T19:36:43.952Z,1.00
2022-09-12T19:39:10.047Z,1.00
2022-09-12T19:41:37.359Z,1.00
2022-09-12T19:44:04.674Z,1.00
2022-09-12T19:46:31.794Z,1.00
2022-09-12T19:48:58.796Z,1.00
2022-09-12T19:51:26.428Z,1.00
2022-09-12T19:53:53.979Z,1.00
2022-09-12T19:56:25.344Z,1.00
2022-09-12T19:58:56.448Z,1.00
2022-09-12T20:01:28.319Z,1.00
2022-09-12T20:03:56.758Z,1.00
2022-09-12T20:06:23.978Z,1.00
2022-09-12T20:08:50.821Z,1.00
2022-09-12T20:11:20.166Z,1.00
2022-09-12T20:13:47.593Z,1.00
2022-09-12T20:16:33.571Z,1.00
2022-09-12T20:19:07.161Z,1.00
2022-09-12T20:21:36.138Z,1.00
2022-09-12T20:24:09.704Z,1.00
2022-09-12T20:26:36.637Z,1.00
2022-09-12T20:29:05.317Z,1.00
2022-09-12T20:31:33.387Z,1.00
2022-09-12T20:34:00.476Z,1.00
2022-09-12T20:36:27.603Z,1.00
2022-09-12T20:38:57.502Z,1.00
2022-09-12T20:41:25.603Z,1.00
2022-09-12T20:43:54.193Z,1.00
2022-09-12T20:46:22.635Z,1.70
2022-09-12T20:48:51.290Z,2.20
2022-09-12T20:51:19.416Z,2.20
2022-09-12T20:53:47.045Z,2.20
2022-09-12T20:56:15.040Z,2.20
2022-09-12T20:58:44.495Z,2.10
2022-09-12T21:01:13.946Z,2.10
2022-09-12T21:03:42.501Z,2.10
2022-09-12T21:06:10.886Z,2.00
2022-09-12T21:08:38.080Z,1.90
2022-09-12T21:11:06.042Z,1.90
2022-09-12T21:13:33.794Z,1.90
2022-09-12T21:16:03.168Z,1.80
2022-09-12T21:18:33.670Z,1.90
2022-09-12T21:21:00.969Z,1.80
2022-09-12T21:23:28.688Z,2.40
2022-09-12T21:25:55.739Z,3.00
2022-09-12T21:28:22.874Z,3.20
2022-09-12T21:30:51.120Z,3.80
2022-09-12T21:33:22.036Z,4.30
2022-09-12T21:35:49.192Z,4.20
2022-09-12T21:38:17.278Z,5.40
2022-09-12T21:40:44.587Z,5.40
2022-09-12T21:43:13.044Z,4.60
2022-09-12T21:45:40.412Z,4.80
2022-09-12T21:48:07.666Z,5.10
2022-09-12T21:50:34.649Z,5.10
2022-09-12T21:53:01.490Z,6.40
2022-09-12T21:55:28.539Z,5.40
2022-09-12T21:57:56.943Z,5.80
2022-09-12T22:00:24.108Z,6.10
2022-09-12T22:02:51.018Z,6.40
2022-09-12T22:05:19.566Z,6.60
2022-09-12T22:07:46.969Z,6.80
2022-09-12T22:10:13.899Z,7.00
2022-09-12T22:12:45.361Z,7.20
2022-09-12T22:15:38.808Z,7.30
2022-09-12T22:18:00.618Z,7.70
2022-09-12T22:20:27.615Z,7.90
2022-09-12T22:23:13.077Z,8.30
2022-09-12T22:25:40.267Z,8.30
2022-09-12T22:28:07.204Z,8.70
2022-09-12T22:30:35.447Z,8.60
2022-09-12T22:33:02.426Z,8.70
2022-09-12T22:35:29.415Z,8.80
2022-09-12T22:37:56.420Z,8.80
2022-09-12T22:40:23.365Z,8.50
2022-09-12T22:42:52.856Z,8.90
2022-09-12T22:45:20.091Z,8.70
2022-09-12T22:47:47.205Z,9.20
2022-09-12T22:50:14.278Z,9.30
2022-09-12T22:52:41.679Z,10.00
2022-09-12T22:55:09.715Z,10.50
2022-09-12T22:57:37.478Z,10.50
2022-09-12T23:00:07.965Z,10.50
2022-09-12T23:02:34.979Z,10.20
2022-09-12T23:05:02.610Z,10.10
2022-09-12T23:07:29.724Z,10.10
2022-09-12T23:09:56.925Z,10.20
2022-09-12T23:12:24.618Z,10.30
2022-09-12T23:14:51.553Z,10.40
2022-09-12T23:17:18.730Z,10.60
2022-09-12T23:19:46.069Z,10.50
2022-09-12T23:22:12.997Z,10.60
2022-09-12T23:24:39.917Z,10.70
2022-09-12T23:27:06.746Z,10.80
2022-09-12T23:29:35.328Z,10.90
2022-09-12T23:32:03.693Z,11.10
2022-09-12T23:34:30.933Z,11.20
2022-09-12T23:36:57.929Z,11.40
2022-09-12T23:39:24.962Z,11.50
2022-09-12T23:41:52.115Z,11.90
2022-09-12T23:44:19.012Z,12.20
2022-09-12T23:46:45.849Z,12.50
2022-09-12T23:49:12.759Z,12.80
2022-09-12T23:51:39.689Z,12.90
2022-09-12T23:54:06.550Z,12.80
2022-09-12T23:56:33.426Z,12.90
2022-09-12T23:59:00.438Z,13.00
